Time;durP1;ratioP1;P1;durP2;ratioP2;P2;SDS_P1;SDS_P2;PMS_P1;PMS_P2;Temp;Humidity;BMP_temperature;BMP_pressure;BME280_temperature;BME280_humidity;BME280_pressure;Samples;Min_cycle;Max_cycle;Signal;HPM_P1;HPM_P2
2020/12/27 00:02:08;;;;;;;3.17;2.70;;;4.20;99.90;;;;;;5069675;28;20187;-72
2020/12/27 00:04:33;;;;;;;3.10;2.80;;;4.20;99.90;;;;;;5052179;28;20271;-72
2020/12/27 00:07:04;;;;;;;2.80;2.50;;;4.20;99.90;;;;;;5070372;28;21004;-72
2020/12/27 00:09:29;;;;;;;3.13;2.83;;;4.20;99.90;;;;;;5060131;28;20212;-72
2020/12/27 00:11:55;;;;;;;2.93;2.60;;;4.20;99.90;;;;;;5078034;28;20503;-72
2020/12/27 00:14:20;;;;;;;2.80;2.60;;;4.20;99.90;;;;;;5070991;28;20183;-72
2020/12/27 00:16:46;;;;;;;4.33;2.53;;;4.20;99.90;;;;;;5069818;28;20183;-72
2020/12/27 00:19:11;;;;;;;2.83;2.63;;;4.20;99.90;;;;;;5074103;28;20206;-72
2020/12/27 00:21:37;;;;;;;2.43;2.23;;;4.20;99.90;;;;;;5070597;28;20212;-72
2020/12/27 00:24:02;;;;;;;2.30;2.20;;;4.20;99.90;;;;;;5056008;28;20187;-72
2020/12/27 00:26:28;;;;;;;2.93;2.00;;;4.20;99.90;;;;;;5070371;28;20284;-72
2020/12/27 00:28:53;;;;;;;2.53;2.17;;;4.20;99.90;;;;;;5068088;28;20180;-72
2020/12/27 00:31:19;;;;;;;2.43;2.23;;;4.20;99.90;;;;;;5070949;28;20187;-72
2020/12/27 00:33:45;;;;;;;2.13;2.03;;;4.20;99.90;;;;;;5069654;28;20191;-72
2020/12/27 00:36:16;;;;;;;3.60;2.30;;;4.20;99.90;;;;;;5053022;28;20180;-72
2020/12/27 00:38:42;;;;;;;2.63;2.43;;;4.20;99.90;;;;;;5072899;28;20210;-72
2020/12/27 00:41:07;;;;;;;2.90;2.20;;;4.20;99.90;;;;;;5068548;28;20469;-72
2020/12/27 00:43:33;;;;;;;2.40;2.00;;;4.20;99.90;;;;;;5077100;28;20187;-72
2020/12/27 00:45:58;;;;;;;4.23;2.73;;;4.20;99.90;;;;;;5072544;28;20294;-72
2020/12/27 00:48:23;;;;;;;2.90;2.60;;;4.20;99.90;;;;;;5073072;28;20187;-72
2020/12/27 00:50:49;;;;;;;3.80;2.43;;;4.20;99.90;;;;;;5069187;28;20202;-72
2020/12/27 00:53:15;;;;;;;2.47;2.10;;;4.20;99.90;;;;;;5056954;28;20264;-72
2020/12/27 00:55:43;;;;;;;2.70;2.20;;;4.20;99.90;;;;;;5068301;28;20198;-73
2020/12/27 00:58:08;;;;;;;2.93;2.63;;;4.20;99.90;;;;;;5071343;28;20646;-72
2020/12/27 01:00:34;;;;;;;2.93;2.10;;;4.20;99.90;;;;;;5051293;28;20552;-72
2020/12/27 01:02:59;;;;;;;2.73;2.47;;;4.20;99.90;;;;;;5069402;28;20207;-72
2020/12/27 01:05:25;;;;;;;5.63;2.20;;;4.30;99.90;;;;;;5071955;28;20257;-72
2020/12/27 01:07:50;;;;;;;2.17;1.97;;;4.30;99.90;;;;;;5070999;28;20204;-72
2020/12/27 01:10:16;;;;;;;2.00;1.73;;;4.30;99.90;;;;;;5070222;28;20202;-72
2020/12/27 01:12:41;;;;;;;2.50;2.00;;;4.30;99.90;;;;;;5055263;28;21054;-72
2020/12/27 01:15:08;;;;;;;1.77;1.67;;;4.30;99.90;;;;;;5069305;28;20205;-72
2020/12/27 01:17:33;;;;;;;1.93;1.63;;;4.30;99.90;;;;;;5073781;28;20187;-72
2020/12/27 01:19:59;;;;;;;2.03;1.83;;;4.30;99.90;;;;;;5084830;28;20472;-72
2020/12/27 01:22:24;;;;;;;2.10;1.90;;;4.30;99.90;;;;;;5070712;28;20195;-72
2020/12/27 01:24:50;;;;;;;1.73;1.63;;;4.30;99.90;;;;;;5052366;28;20705;-72
2020/12/27 01:27:15;;;;;;;3.17;2.33;;;4.30;99.90;;;;;;5072304;28;20201;-72
2020/12/27 01:29:41;;;;;;;2.10;1.80;;;4.20;99.90;;;;;;5067949;28;20656;-72
2020/12/27 01:32:06;;;;;;;1.60;1.50;;;4.30;99.90;;;;;;5070528;28;20207;-72
2020/12/27 01:34:32;;;;;;;2.23;2.00;;;4.20;99.90;;;;;;5070732;28;20204;-72
2020/12/27 01:36:57;;;;;;;2.40;1.90;;;4.30;99.90;;;;;;5070272;28;20183;-72
2020/12/27 01:39:23;;;;;;;2.50;1.80;;;4.30;99.90;;;;;;5067551;28;20260;-72
2020/12/27 01:41:51;;;;;;;1.57;1.47;;;4.30;99.90;;;;;;5053645;28;20554;-72
2020/12/27 01:44:16;;;;;;;1.73;1.60;;;4.30;99.90;;;;;;5051207;28;20207;-72
2020/12/27 01:46:44;;;;;;;1.80;1.70;;;4.30;99.90;;;;;;5073638;28;20468;-72
2020/12/27 01:49:11;;;;;;;1.80;1.70;;;4.30;99.90;;;;;;5078541;28;21146;-72
2020/12/27 01:51:38;;;;;;;1.73;1.63;;;4.20;99.90;;;;;;5051343;28;20438;-72
2020/12/27 01:54:04;;;;;;;1.70;1.60;;;4.20;99.90;;;;;;5071111;28;20907;-72
2020/12/27 01:56:41;;;;;;;2.00;1.80;;;4.20;99.90;;;;;;5050666;28;20441;-72
2020/12/27 01:59:17;;;;;;;1.63;1.53;;;4.20;99.90;;;;;;5069340;28;20445;-72
2020/12/27 02:01:44;;;;;;;1.87;1.73;;;4.20;99.90;;;;;;5067979;28;20874;-72
2020/12/27 02:04:11;;;;;;;1.60;1.43;;;4.20;99.90;;;;;;5072802;28;20478;-72
2020/12/27 02:06:40;;;;;;;1.47;1.37;;;4.20;99.90;;;;;;5068101;28;20481;-72
2020/12/27 02:09:06;;;;;;;1.93;1.60;;;4.20;99.90;;;;;;5067549;28;20918;-72
2020/12/27 02:11:32;;;;;;;2.10;1.70;;;4.20;99.90;;;;;;5068802;28;20479;-72
2020/12/27 02:13:57;;;;;;;1.80;1.70;;;4.20;99.90;;;;;;5071934;28;20437;-72
2020/12/27 02:16:26;;;;;;;1.93;1.80;;;4.20;99.90;;;;;;5067578;28;20191;-72
2020/12/27 02:18:54;;;;;;;2.17;1.73;;;4.20;99.90;;;;;;5059485;28;20184;-72
2020/12/27 02:21:20;;;;;;;1.90;1.70;;;4.10;99.90;;;;;;5071376;28;20465;-72
2020/12/27 02:23:46;;;;;;;1.40;1.30;;;4.10;99.90;;;;;;5071029;28;20988;-72
2020/12/27 02:26:12;;;;;;;1.60;1.50;;;4.10;99.90;;;;;;5070406;28;20217;-72
2020/12/27 02:28:38;;;;;;;1.90;1.73;;;4.00;99.90;;;;;;5080707;28;20441;-72
2020/12/27 02:31:03;;;;;;;1.70;1.60;;;4.10;99.90;;;;;;5074872;28;20249;-72
2020/12/27 02:33:29;;;;;;;2.43;2.23;;;4.00;99.90;;;;;;5057412;28;20190;-72
2020/12/27 02:35:54;;;;;;;3.10;2.20;;;4.00;99.90;;;;;;5073002;28;20641;-72
2020/12/27 02:38:20;;;;;;;1.87;1.77;;;4.00;99.90;;;;;;5071333;28;20188;-72
2020/12/27 02:40:46;;;;;;;1.80;1.70;;;4.00;99.90;;;;;;5071375;28;20559;-72
2020/12/27 02:43:17;;;;;;;1.43;1.20;;;4.00;99.90;;;;;;5058874;28;20954;-72
2020/12/27 02:45:42;;;;;;;2.47;1.40;;;4.00;99.90;;;;;;5072116;28;20194;-72
2020/12/27 02:48:08;;;;;;;1.73;1.37;;;4.10;99.90;;;;;;5056745;28;20436;-72
2020/12/27 02:50:34;;;;;;;1.60;1.40;;;4.10;99.90;;;;;;5054558;28;20266;-72
2020/12/27 02:52:59;;;;;;;1.63;1.53;;;4.10;99.90;;;;;;5055314;28;20271;-72
2020/12/27 02:55:25;;;;;;;1.37;1.27;;;4.10;99.90;;;;;;5072270;28;20198;-72
2020/12/27 02:57:50;;;;;;;2.00;1.20;;;4.20;99.90;;;;;;5071674;28;20274;-72
2020/12/27 03:00:16;;;;;;;1.37;1.27;;;4.10;99.90;;;;;;5056497;28;20526;-72
2020/12/27 03:02:41;;;;;;;1.33;1.07;;;4.10;99.90;;;;;;5063838;28;20861;-72
2020/12/27 03:05:07;;;;;;;1.40;1.30;;;4.10;99.90;;;;;;5054037;28;20193;-72
2020/12/27 03:07:32;;;;;;;2.40;1.27;;;4.20;99.90;;;;;;5059767;28;20706;-72
2020/12/27 03:09:58;;;;;;;1.77;1.20;;;4.20;99.90;;;;;;5072114;28;20644;-72
2020/12/27 03:12:23;;;;;;;3.83;1.30;;;4.20;99.90;;;;;;5074338;28;20194;-72
2020/12/27 03:14:49;;;;;;;1.80;1.53;;;4.20;99.90;;;;;;5053924;28;20215;-72
2020/12/27 03:17:14;;;;;;;1.83;1.27;;;4.20;99.90;;;;;;5059732;28;20281;-72
2020/12/27 03:19:40;;;;;;;1.63;1.40;;;4.20;99.90;;;;;;5078736;28;20203;-72
2020/12/27 03:22:06;;;;;;;1.40;1.30;;;4.20;99.90;;;;;;5071593;28;20216;-72
2020/12/27 03:24:31;;;;;;;1.40;1.30;;;4.20;99.90;;;;;;5072132;28;20506;-72
2020/12/27 03:26:57;;;;;;;1.23;1.10;;;4.30;99.90;;;;;;5077721;28;20198;-72
2020/12/27 03:29:22;;;;;;;1.30;1.07;;;4.20;99.90;;;;;;5072909;28;20210;-73
2020/12/27 03:31:48;;;;;;;1.20;1.10;;;4.20;99.90;;;;;;5071602;28;20194;-73
2020/12/27 03:34:14;;;;;;;1.33;1.23;;;4.20;99.90;;;;;;5071757;28;20194;-73
2020/12/27 03:36:40;;;;;;;1.60;1.33;;;4.20;99.90;;;;;;5069683;28;20184;-73
2020/12/27 03:39:05;;;;;;;1.20;1.10;;;4.20;99.90;;;;;;5055399;28;20448;-74
2020/12/27 03:41:31;;;;;;;2.87;1.67;;;4.20;99.90;;;;;;5069516;28;20219;-73
2020/12/27 03:43:57;;;;;;;1.50;1.27;;;4.20;99.90;;;;;;5072891;28;20191;-74
2020/12/27 03:46:22;;;;;;;2.20;1.50;;;4.30;99.90;;;;;;5071251;28;20245;-74
2020/12/27 03:48:47;;;;;;;1.30;1.20;;;4.30;99.90;;;;;;5073844;28;20244;-73
2020/12/27 03:51:13;;;;;;;1.63;1.40;;;4.30;99.90;;;;;;5052190;28;20179;-73
2020/12/27 03:53:39;;;;;;;1.50;1.00;;;4.20;99.90;;;;;;5070062;28;20188;-73
2020/12/27 03:56:05;;;;;;;1.70;1.30;;;4.20;99.90;;;;;;5074899;28;20258;-73
2020/12/27 03:58:31;;;;;;;1.10;0.93;;;4.20;99.90;;;;;;5070202;28;20217;-73
2020/12/27 04:00:56;;;;;;;1.00;0.90;;;4.20;99.90;;;;;;5071672;28;20526;-73
2020/12/27 04:03:22;;;;;;;1.70;1.23;;;4.20;99.90;;;;;;5063983;28;20257;-73
2020/12/27 04:05:47;;;;;;;0.93;0.87;;;4.20;99.90;;;;;;5070156;28;20668;-73
2020/12/27 04:08:13;;;;;;;1.33;1.10;;;4.20;99.90;;;;;;5052864;28;20486;-73
2020/12/27 04:10:38;;;;;;;2.10;1.30;;;4.20;99.90;;;;;;5056896;28;20737;-73
2020/12/27 04:13:04;;;;;;;1.67;1.10;;;4.20;99.90;;;;;;5053952;28;20211;-73
2020/12/27 04:15:29;;;;;;;1.30;1.20;;;4.30;99.90;;;;;;5052253;28;20207;-73
2020/12/27 04:17:55;;;;;;;1.23;1.13;;;4.30;99.90;;;;;;5072632;28;20195;-73
2020/12/27 04:20:20;;;;;;;1.10;1.00;;;4.30;99.90;;;;;;5058405;28;20290;-73
2020/12/27 04:22:52;;;;;;;1.40;1.30;;;4.30;99.90;;;;;;5054966;28;20943;-73
2020/12/27 04:25:18;;;;;;;2.50;1.30;;;4.30;99.90;;;;;;5077567;28;20276;-74
2020/12/27 04:27:44;;;;;;;2.87;1.20;;;4.30;99.90;;;;;;5068630;28;20469;-73
2020/12/27 04:30:09;;;;;;;1.50;1.00;;;4.30;99.90;;;;;;5070862;28;20473;-73
2020/12/27 04:32:35;;;;;;;1.53;1.30;;;4.30;99.90;;;;;;5069493;28;20182;-73
2020/12/27 04:35:02;;;;;;;1.40;1.07;;;4.30;99.90;;;;;;5051572;28;20271;-73
2020/12/27 04:37:28;;;;;;;1.30;1.20;;;4.20;99.90;;;;;;5069816;28;20661;-73
2020/12/27 04:39:54;;;;;;;1.20;1.10;;;4.20;99.90;;;;;;5051819;28;20715;-73
2020/12/27 04:42:21;;;;;;;1.97;1.20;;;4.30;99.90;;;;;;5056071;28;20448;-73
2020/12/27 04:44:48;;;;;;;3.13;1.50;;;4.30;99.90;;;;;;5051050;28;20532;-73
2020/12/27 04:47:13;;;;;;;1.83;1.10;;;4.30;99.90;;;;;;5070446;28;20438;-73
2020/12/27 04:49:39;;;;;;;1.53;1.27;;;4.30;99.90;;;;;;5075902;28;20440;-73
2020/12/27 04:52:06;;;;;;;1.33;0.93;;;4.30;99.90;;;;;;5068593;28;20429;-73
2020/12/27 04:54:33;;;;;;;1.90;1.30;;;4.30;99.90;;;;;;5073322;28;20987;-73
2020/12/27 04:56:58;;;;;;;1.77;0.90;;;4.30;99.90;;;;;;5073116;28;20952;-73
2020/12/27 04:59:24;;;;;;;1.30;1.10;;;4.30;99.90;;;;;;5070080;28;20441;-73
2020/12/27 05:01:51;;;;;;;1.10;1.00;;;4.30;99.90;;;;;;5078095;28;22265;-73
2020/12/27 05:04:22;;;;;;;1.53;1.10;;;4.30;99.90;;;;;;5077987;28;20240;-73
2020/12/27 05:06:51;;;;;;;2.17;1.27;;;4.30;99.90;;;;;;5051781;28;20438;-73
2020/12/27 05:09:17;;;;;;;1.10;1.00;;;4.40;99.90;;;;;;5070155;28;20472;-73
2020/12/27 05:11:43;;;;;;;0.80;0.80;;;4.40;99.90;;;;;;5072430;28;20950;-73
2020/12/27 05:14:09;;;;;;;0.80;0.80;;;4.40;99.90;;;;;;5071153;28;20233;-73
2020/12/27 05:16:35;;;;;;;1.87;0.80;;;4.40;99.90;;;;;;5071574;28;20953;-73
2020/12/27 05:19:02;;;;;;;1.30;1.00;;;4.40;99.90;;;;;;5078024;28;20611;-73
2020/12/27 05:21:37;;;;;;;1.10;1.00;;;4.40;99.90;;;;;;5068500;28;21010;-73
2020/12/27 05:24:03;;;;;;;1.10;0.83;;;4.40;99.90;;;;;;5056417;28;20464;-73
2020/12/27 05:26:29;;;;;;;1.23;1.00;;;4.40;99.90;;;;;;5067242;28;20449;-73
2020/12/27 05:28:54;;;;;;;0.93;0.80;;;4.30;99.90;;;;;;5077348;28;20430;-73
2020/12/27 05:31:20;;;;;;;1.63;1.00;;;4.30;99.90;;;;;;5069300;28;20240;-73
2020/12/27 05:33:47;;;;;;;1.10;0.93;;;4.30;99.90;;;;;;5070155;28;20187;-73
2020/12/27 05:36:14;;;;;;;1.00;0.90;;;4.30;99.90;;;;;;5068485;28;20650;-73
2020/12/27 05:38:47;;;;;;;3.57;0.93;;;4.30;99.90;;;;;;5051701;28;20471;-73
2020/12/27 05:41:14;;;;;;;1.47;1.27;;;4.40;99.90;;;;;;5069673;28;20530;-73
2020/12/27 05:43:40;;;;;;;1.27;0.90;;;4.40;99.90;;;;;;5072933;28;20432;-73
2020/12/27 05:46:07;;;;;;;1.43;1.27;;;4.40;99.90;;;;;;5050625;28;20434;-73
2020/12/27 05:48:33;;;;;;;2.20;1.50;;;4.40;99.90;;;;;;5069247;28;20183;-73
2020/12/27 05:51:02;;;;;;;1.83;1.40;;;4.40;99.90;;;;;;5053531;28;20500;-73
2020/12/27 05:53:31;;;;;;;1.93;1.00;;;4.40;99.90;;;;;;5069835;28;20429;-73
2020/12/27 05:55:59;;;;;;;3.27;1.03;;;4.40;99.90;;;;;;5071538;28;20442;-74
2020/12/27 05:58:25;;;;;;;1.63;1.00;;;4.40;99.90;;;;;;5069949;28;20438;-73
2020/12/27 06:00:52;;;;;;;4.67;1.17;;;4.40;99.90;;;;;;5058119;28;20829;-73
2020/12/27 06:03:20;;;;;;;1.93;1.47;;;4.40;99.90;;;;;;5072335;28;20437;-73
2020/12/27 06:05:58;;;;;;;1.30;1.20;;;4.50;99.90;;;;;;5072756;28;20466;-73
2020/12/27 06:08:30;;;;;;;1.00;0.90;;;4.40;99.90;;;;;;5054861;28;20437;-73
2020/12/27 06:11:11;;;;;;;1.30;1.17;;;4.40;99.90;;;;;;5074357;28;20448;-73
2020/12/27 06:13:49;;;;;;;1.40;1.00;;;4.40;99.90;;;;;;5076429;28;20930;-73
2020/12/27 06:16:23;;;;;;;1.50;1.40;;;4.40;99.90;;;;;;5071474;28;20433;-73
2020/12/27 06:19:06;;;;;;;1.00;0.90;;;4.40;99.90;;;;;;5065579;28;20436;-73
2020/12/27 06:21:40;;;;;;;0.93;0.83;;;4.40;99.90;;;;;;5072924;28;20867;-73
2020/12/27 06:24:13;;;;;;;1.27;1.17;;;4.50;99.90;;;;;;5054504;28;20864;-73
2020/12/27 06:26:38;;;;;;;0.80;0.80;;;4.50;99.90;;;;;;5073228;28;20460;-73
2020/12/27 06:29:04;;;;;;;2.60;0.70;;;4.40;99.90;;;;;;5071963;28;20436;-73
2020/12/27 06:31:31;;;;;;;1.37;0.73;;;4.40;99.90;;;;;;5072812;28;20238;-73
2020/12/27 06:33:57;;;;;;;1.60;1.00;;;4.50;99.90;;;;;;5071606;28;20183;-73
2020/12/27 06:36:33;;;;;;;2.00;1.20;;;4.50;99.90;;;;;;5072468;28;20428;-73
2020/12/27 06:38:58;;;;;;;1.33;1.20;;;4.50;99.90;;;;;;5072715;28;20607;-74
2020/12/27 06:41:24;;;;;;;0.87;0.77;;;4.50;99.90;;;;;;5072019;28;20480;-73
2020/12/27 06:43:49;;;;;;;0.70;0.67;;;4.60;99.90;;;;;;5076065;28;20270;-73
2020/12/27 06:46:28;;;;;;;1.20;0.83;;;4.60;99.90;;;;;;5061733;28;20238;-73
2020/12/27 06:49:10;;;;;;;0.70;0.60;;;4.60;99.90;;;;;;5078932;28;20187;-73
2020/12/27 06:51:40;;;;;;;1.67;0.83;;;4.60;99.90;;;;;;5073137;28;20487;-73
2020/12/27 06:54:07;;;;;;;1.00;0.80;;;4.70;99.90;;;;;;5073057;28;20445;-73
2020/12/27 06:56:43;;;;;;;1.20;1.00;;;4.70;99.90;;;;;;5054179;28;20438;-73
2020/12/27 06:59:09;;;;;;;0.90;0.70;;;4.70;99.90;;;;;;5053510;28;20495;-73
2020/12/27 07:01:36;;;;;;;0.90;0.80;;;4.70;99.90;;;;;;5060180;28;20501;-73
2020/12/27 07:04:20;;;;;;;1.03;0.93;;;4.70;99.90;;;;;;5072995;28;20968;-73
2020/12/27 07:06:47;;;;;;;1.30;1.00;;;4.70;99.90;;;;;;5071255;28;21157;-73
2020/12/27 07:09:25;;;;;;;0.90;0.80;;;4.70;99.90;;;;;;5053321;28;20495;-73
2020/12/27 07:12:10;;;;;;;1.00;0.70;;;4.80;99.90;;;;;;5071631;28;20942;-73
2020/12/27 07:14:42;;;;;;;1.37;0.90;;;4.80;99.90;;;;;;5073590;28;20461;-73
2020/12/27 07:17:10;;;;;;;0.70;0.60;;;4.80;99.90;;;;;;5069879;28;20433;-73
2020/12/27 07:19:36;;;;;;;0.83;0.70;;;4.80;99.90;;;;;;5081201;28;20590;-73
2020/12/27 07:22:09;;;;;;;0.80;0.70;;;4.80;99.90;;;;;;5053987;28;20473;-73
2020/12/27 07:24:36;;;;;;;0.97;0.60;;;4.90;99.90;;;;;;5054533;28;20481;-73
2020/12/27 07:27:08;;;;;;;2.90;0.50;;;4.90;99.90;;;;;;5071043;28;20474;-73
2020/12/27 07:29:35;;;;;;;0.63;0.60;;;4.90;99.90;;;;;;5073264;28;20441;-73
2020/12/27 07:32:00;;;;;;;0.70;0.57;;;4.90;99.90;;;;;;5072209;28;20450;-73
2020/12/27 07:34:29;;;;;;;0.60;0.57;;;4.90;99.90;;;;;;5053797;28;20825;-73
2020/12/27 07:37:05;;;;;;;0.60;0.60;;;4.90;99.90;;;;;;5071902;28;20269;-73
2020/12/27 07:39:50;;;;;;;0.60;0.50;;;4.90;99.90;;;;;;5070498;28;21377;-73
2020/12/27 07:42:25;;;;;;;0.97;0.60;;;4.90;99.90;;;;;;5059916;28;20781;-73
2020/12/27 07:44:52;;;;;;;1.73;0.70;;;4.90;99.90;;;;;;5068925;28;20469;-73
2020/12/27 07:47:18;;;;;;;0.83;0.53;;;4.90;99.90;;;;;;5072440;28;21265;-73
2020/12/27 07:50:10;;;;;;;0.73;0.50;;;4.90;99.90;;;;;;5072663;28;20440;-73
2020/12/27 07:52:47;;;;;;;0.60;0.50;;;4.90;99.90;;;;;;5056927;28;21033;-73
2020/12/27 07:55:28;;;;;;;1.33;0.63;;;4.90;99.90;;;;;;5070132;28;20445;-73
2020/12/27 07:57:54;;;;;;;1.00;0.70;;;4.90;99.90;;;;;;5070718;28;20455;-73
2020/12/27 08:00:25;;;;;;;0.60;0.50;;;4.90;99.90;;;;;;5058253;28;21005;-73
2020/12/27 08:02:51;;;;;;;0.90;0.70;;;4.90;99.90;;;;;;5052508;28;20453;-73
2020/12/27 08:05:17;;;;;;;1.10;0.70;;;4.90;99.90;;;;;;5069765;28;20434;-73
2020/12/27 08:07:43;;;;;;;0.70;0.60;;;4.90;99.90;;;;;;5071403;28;20234;-73
2020/12/27 08:10:27;;;;;;;0.77;0.53;;;4.90;99.90;;;;;;5069821;28;20446;-73
2020/12/27 08:12:58;;;;;;;0.90;0.73;;;4.90;99.90;;;;;;5077092;28;20448;-73
2020/12/27 08:15:25;;;;;;;1.30;0.70;;;4.90;99.90;;;;;;5071383;28;20836;-73
2020/12/27 08:18:05;;;;;;;1.30;0.60;;;4.80;99.90;;;;;;5074314;28;21128;-73
2020/12/27 08:20:33;;;;;;;0.93;0.83;;;4.80;99.90;;;;;;5071491;28;20468;-73
2020/12/27 08:23:07;;;;;;;1.10;0.97;;;4.90;99.90;;;;;;5071086;28;20448;-73
2020/12/27 08:25:34;;;;;;;0.80;0.63;;;4.90;99.90;;;;;;5071555;28;20488;-73
2020/12/27 08:28:02;;;;;;;0.77;0.60;;;4.90;99.90;;;;;;5078421;28;20466;-73
2020/12/27 08:30:28;;;;;;;1.23;0.83;;;4.90;99.90;;;;;;5074717;28;20436;-73
2020/12/27 08:33:04;;;;;;;0.70;0.50;;;4.90;99.90;;;;;;5051625;28;20836;-73
2020/12/27 08:35:31;;;;;;;1.03;0.80;;;5.00;99.90;;;;;;5070274;28;20187;-73
2020/12/27 08:38:15;;;;;;;0.90;0.67;;;5.00;99.90;;;;;;5070271;28;20488;-73
2020/12/27 08:40:45;;;;;;;0.77;0.77;;;5.00;99.90;;;;;;5071936;28;20481;-73
2020/12/27 08:43:22;;;;;;;0.97;0.83;;;5.00;99.90;;;;;;5056730;28;20445;-73
2020/12/27 08:45:56;;;;;;;1.00;0.90;;;5.00;99.90;;;;;;5068846;28;20449;-73
2020/12/27 08:48:37;;;;;;;0.80;0.70;;;5.00;99.90;;;;;;5060721;28;20850;-73
2020/12/27 08:51:05;;;;;;;1.10;0.70;;;5.10;99.90;;;;;;5072775;28;20434;-73
2020/12/27 08:53:39;;;;;;;1.00;0.77;;;5.10;99.90;;;;;;5069296;28;20442;-73
2020/12/27 08:56:06;;;;;;;0.90;0.80;;;5.10;99.90;;;;;;5068990;28;20441;-73
2020/12/27 08:58:31;;;;;;;0.77;0.63;;;5.10;99.90;;;;;;5070333;28;20453;-73
2020/12/27 09:00:57;;;;;;;0.70;0.53;;;5.10;99.90;;;;;;5069091;28;20910;-73
2020/12/27 09:03:22;;;;;;;0.70;0.60;;;5.20;99.90;;;;;;5070058;28;20180;-73
2020/12/27 09:05:48;;;;;;;0.97;0.77;;;5.10;99.90;;;;;;5070028;28;20221;-73
2020/12/27 09:08:16;;;;;;;0.97;0.70;;;5.20;99.90;;;;;;5068519;28;20245;-73
2020/12/27 09:10:42;;;;;;;1.20;0.90;;;5.20;99.90;;;;;;5069075;28;20199;-73
2020/12/27 09:13:10;;;;;;;1.10;0.70;;;5.20;99.90;;;;;;5076066;28;20537;-73
2020/12/27 09:15:36;;;;;;;0.93;0.70;;;5.20;99.90;;;;;;5069634;28;20473;-73
2020/12/27 09:18:06;;;;;;;1.27;1.07;;;5.20;99.90;;;;;;5074719;28;20456;-73
2020/12/27 09:20:36;;;;;;;0.93;0.60;;;5.30;99.90;;;;;;5056580;28;20503;-73
2020/12/27 09:23:23;;;;;;;0.60;0.60;;;5.30;99.90;;;;;;5051468;28;20472;-73
2020/12/27 09:26:05;;;;;;;0.80;0.70;;;5.30;99.90;;;;;;5068216;28;20835;-73
2020/12/27 09:28:32;;;;;;;0.80;0.80;;;5.30;99.90;;;;;;5071186;28;20438;-73
2020/12/27 09:31:02;;;;;;;1.27;0.90;;;5.30;99.90;;;;;;5069167;28;20440;-73
2020/12/27 09:33:29;;;;;;;0.90;0.80;;;5.40;99.90;;;;;;5072327;28;20440;-73
2020/12/27 09:35:59;;;;;;;0.80;0.70;;;5.40;99.90;;;;;;5058989;28;20855;-73
2020/12/27 09:38:32;;;;;;;0.80;0.70;;;5.50;99.90;;;;;;5055947;28;20484;-73
2020/12/27 09:41:06;;;;;;;1.00;0.67;;;5.50;99.90;;;;;;5072140;28;20588;-73
2020/12/27 09:43:44;;;;;;;0.67;0.53;;;5.50;99.90;;;;;;5073357;28;20490;-73
2020/12/27 09:46:10;;;;;;;1.00;0.80;;;5.50;99.90;;;;;;5061873;28;20464;-73
2020/12/27 09:48:35;;;;;;;1.10;0.60;;;5.50;99.90;;;;;;5078228;28;20894;-73
2020/12/27 09:51:14;;;;;;;1.00;0.63;;;5.60;99.90;;;;;;5072982;28;20667;-73
2020/12/27 09:53:40;;;;;;;1.90;0.80;;;5.60;99.90;;;;;;5073622;28;20184;-73
2020/12/27 09:56:05;;;;;;;0.70;0.60;;;5.60;99.90;;;;;;5072730;28;21087;-73
2020/12/27 09:58:31;;;;;;;1.00;0.80;;;5.60;99.90;;;;;;5071443;28;20192;-73
2020/12/27 10:00:56;;;;;;;0.60;0.50;;;5.60;99.90;;;;;;5074530;28;20859;-73
2020/12/27 10:03:22;;;;;;;1.90;0.70;;;5.60;99.90;;;;;;5072835;28;20270;-73
2020/12/27 10:05:47;;;;;;;0.90;0.70;;;5.60;99.90;;;;;;5055468;28;20692;-73
2020/12/27 10:08:13;;;;;;;0.90;0.80;;;5.60;99.90;;;;;;5075451;28;20188;-73
2020/12/27 10:10:38;;;;;;;0.90;0.63;;;5.60;99.90;;;;;;5072954;28;20184;-73
2020/12/27 10:13:04;;;;;;;1.90;1.00;;;5.60;99.90;;;;;;5072250;28;20191;-73
2020/12/27 10:15:29;;;;;;;1.37;0.80;;;5.60;99.90;;;;;;5073482;28;20577;-73
2020/12/27 10:17:55;;;;;;;1.40;1.30;;;5.60;99.90;;;;;;5079444;28;20195;-73
2020/12/27 10:20:20;;;;;;;1.07;0.77;;;5.70;99.90;;;;;;5072385;28;20207;-73
2020/12/27 10:22:46;;;;;;;1.10;0.93;;;5.60;99.90;;;;;;5077728;28;20190;-73
2020/12/27 10:25:11;;;;;;;1.33;0.90;;;5.60;99.90;;;;;;5071363;28;20180;-73
2020/12/27 10:27:37;;;;;;;1.03;0.70;;;5.70;99.90;;;;;;5070194;28;20268;-73
2020/12/27 10:30:04;;;;;;;1.83;1.17;;;5.60;99.90;;;;;;5071797;28;20178;-73
2020/12/27 10:32:30;;;;;;;1.23;1.07;;;5.60;99.90;;;;;;5072535;28;20219;-73
2020/12/27 10:34:56;;;;;;;1.20;0.70;;;5.70;99.90;;;;;;5077120;28;20479;-73
2020/12/27 10:37:22;;;;;;;0.80;0.80;;;5.60;99.90;;;;;;5072710;28;20290;-73
2020/12/27 10:39:49;;;;;;;1.30;1.20;;;5.60;99.90;;;;;;5055370;28;20196;-73
2020/12/27 10:42:14;;;;;;;0.97;0.80;;;5.70;99.90;;;;;;5078906;28;20238;-73
2020/12/27 10:44:40;;;;;;;1.53;0.80;;;5.70;99.90;;;;;;5074833;28;20484;-73
2020/12/27 10:47:08;;;;;;;1.00;0.90;;;5.70;99.90;;;;;;5075407;28;20195;-73
2020/12/27 10:49:34;;;;;;;0.80;0.77;;;5.70;99.90;;;;;;5081623;28;20528;-73
2020/12/27 10:51:59;;;;;;;1.00;0.80;;;5.70;99.90;;;;;;5072173;28;20429;-73
2020/12/27 10:54:25;;;;;;;0.70;0.70;;;5.70;99.90;;;;;;5073501;28;20509;-73
2020/12/27 10:56:50;;;;;;;1.33;0.80;;;5.70;99.90;;;;;;5071555;28;20180;-73
2020/12/27 10:59:16;;;;;;;1.17;0.83;;;5.70;99.90;;;;;;5072882;28;20188;-73
2020/12/27 11:01:46;;;;;;;1.33;0.73;;;5.70;99.90;;;;;;5057951;28;20737;-73
2020/12/27 11:04:12;;;;;;;0.90;0.80;;;5.70;99.90;;;;;;5053191;28;20215;-73
2020/12/27 11:06:38;;;;;;;1.10;1.00;;;5.70;99.90;;;;;;5072933;28;20426;-73
2020/12/27 11:09:04;;;;;;;1.20;0.80;;;5.70;99.90;;;;;;5071432;28;20957;-73
2020/12/27 11:11:31;;;;;;;1.20;0.90;;;5.60;99.90;;;;;;5073108;28;20507;-73
2020/12/27 11:13:56;;;;;;;0.70;0.70;;;5.60;99.90;;;;;;5078684;28;20261;-73
2020/12/27 11:16:22;;;;;;;1.77;0.97;;;5.70;99.90;;;;;;5073581;28;20438;-73
2020/12/27 11:18:47;;;;;;;0.87;0.73;;;5.70;99.90;;;;;;5074452;28;20202;-73
2020/12/27 11:21:13;;;;;;;1.10;1.00;;;5.70;99.90;;;;;;5072048;28;20204;-73
2020/12/27 11:23:38;;;;;;;2.50;1.00;;;5.70;99.90;;;;;;5060531;28;20184;-73
2020/12/27 11:26:04;;;;;;;1.07;0.90;;;5.80;99.90;;;;;;5052728;28;20183;-73
2020/12/27 11:28:30;;;;;;;0.77;0.60;;;5.80;99.90;;;;;;5073526;28;20192;-73
2020/12/27 11:30:55;;;;;;;3.80;2.43;;;5.80;99.90;;;;;;5071760;28;20188;-73
2020/12/27 11:33:21;;;;;;;1.83;1.33;;;5.80;99.90;;;;;;5071633;28;20181;-73
2020/12/27 11:35:47;;;;;;;1.07;0.80;;;5.80;99.90;;;;;;5052813;28;20660;-73
2020/12/27 11:38:12;;;;;;;5.50;0.80;;;5.90;99.90;;;;;;5070784;28;20244;-73
2020/12/27 11:40:38;;;;;;;1.67;0.70;;;5.90;99.90;;;;;;5070653;28;20238;-73
2020/12/27 11:43:03;;;;;;;1.20;0.90;;;5.90;99.90;;;;;;5072380;28;20791;-74
2020/12/27 11:45:29;;;;;;;0.80;0.77;;;5.90;99.90;;;;;;5074514;28;20195;-73
2020/12/27 11:47:54;;;;;;;1.20;1.00;;;5.90;99.90;;;;;;5076499;28;20660;-73
2020/12/27 11:50:20;;;;;;;1.07;0.90;;;5.90;99.90;;;;;;5072191;28;20225;-73
2020/12/27 11:52:45;;;;;;;1.07;0.77;;;5.90;99.90;;;;;;5077879;28;20184;-73
2020/12/27 11:55:11;;;;;;;1.33;1.00;;;5.90;99.90;;;;;;5072068;28;20256;-73
2020/12/27 11:57:36;;;;;;;2.00;1.80;;;5.90;99.90;;;;;;5070343;28;20183;-74
2020/12/27 12:00:04;;;;;;;1.93;1.00;;;5.90;99.90;;;;;;5071696;28;20190;-73
2020/12/27 12:02:29;;;;;;;1.10;0.87;;;6.00;99.90;;;;;;5052674;28;20657;-73
2020/12/27 12:04:55;;;;;;;1.00;0.90;;;6.00;99.90;;;;;;5069970;28;21120;-73
2020/12/27 12:07:20;;;;;;;0.87;0.83;;;6.00;99.90;;;;;;5070240;28;20199;-73
2020/12/27 12:09:46;;;;;;;1.40;0.90;;;6.00;99.90;;;;;;5052538;28;20271;-73
2020/12/27 12:12:13;;;;;;;2.00;1.17;;;6.00;99.90;;;;;;5074012;28;20187;-73
2020/12/27 12:14:38;;;;;;;3.07;0.90;;;6.00;99.90;;;;;;5069898;28;20180;-73
2020/12/27 12:17:04;;;;;;;1.20;1.00;;;6.00;99.90;;;;;;5052482;28;21012;-73
2020/12/27 12:19:29;;;;;;;2.10;1.50;;;6.10;99.90;;;;;;5073064;28;20215;-73
2020/12/27 12:21:55;;;;;;;0.80;0.80;;;6.10;99.90;;;;;;5071042;28;20215;-73
2020/12/27 12:24:22;;;;;;;2.97;2.20;;;6.10;99.90;;;;;;5052022;28;20199;-73
2020/12/27 12:26:48;;;;;;;1.43;1.20;;;6.10;99.90;;;;;;5055925;28;20198;-73
2020/12/27 12:29:14;;;;;;;0.93;0.80;;;6.10;99.90;;;;;;5053568;28;20437;-73
2020/12/27 12:31:39;;;;;;;0.90;0.80;;;6.10;99.90;;;;;;5070171;28;20192;-73
2020/12/27 12:34:06;;;;;;;1.23;0.80;;;6.00;99.90;;;;;;5055266;28;20675;-73
2020/12/27 12:36:32;;;;;;;1.00;0.87;;;6.00;99.90;;;;;;5069581;28;20676;-73
2020/12/27 12:38:57;;;;;;;0.90;0.80;;;6.00;99.90;;;;;;5071210;28;20451;-73
2020/12/27 12:41:27;;;;;;;1.40;1.20;;;5.90;99.90;;;;;;5074250;28;20360;-73
2020/12/27 12:43:54;;;;;;;1.23;1.00;;;5.90;99.90;;;;;;5073031;28;20619;-73
2020/12/27 12:46:22;;;;;;;0.80;0.80;;;5.80;99.90;;;;;;5069911;28;20438;-73
2020/12/27 12:48:49;;;;;;;1.20;1.10;;;5.80;99.90;;;;;;5074151;28;20441;-73
2020/12/27 12:51:15;;;;;;;1.57;1.47;;;5.70;99.90;;;;;;5069211;28;20442;-73
2020/12/27 12:53:40;;;;;;;1.77;1.17;;;5.70;99.90;;;;;;5070153;28;20484;-73
2020/12/27 12:56:10;;;;;;;1.00;0.90;;;5.60;99.90;;;;;;5070704;28;20947;-73
2020/12/27 12:58:36;;;;;;;1.13;1.03;;;5.60;99.90;;;;;;5070094;28;20187;-74
2020/12/27 13:01:03;;;;;;;1.30;1.10;;;5.60;99.90;;;;;;5072764;28;20456;-73